sensor_id;sensor_type;location;lat;lon;timestamp;P1;durP1;ratioP1;P2;durP2;ratioP2
6259;SDS011;3163;51.516;4.000;2023-08-12T00:01:22;1.50;;;1.30;;
6259;SDS011;3163;51.516;4.000;2023-08-12T00:03:49;1.25;;;0.95;;
6259;SDS011;3163;51.516;4.000;2023-08-12T00:06:15;1.08;;;0.98;;
6259;SDS011;3163;51.516;4.000;2023-08-12T00:08:41;0.93;;;0.93;;
6259;SDS011;3163;51.516;4.000;2023-08-12T00:11:06;2.10;;;0.80;;
6259;SDS011;3163;51.516;4.000;2023-08-12T00:13:32;2.03;;;1.13;;
6259;SDS011;3163;51.516;4.000;2023-08-12T00:15:58;0.90;;;0.90;;
6259;SDS011;3163;51.516;4.000;2023-08-12T00:18:23;1.65;;;0.90;;
6259;SDS011;3163;51.516;4.000;2023-08-12T00:20:49;2.33;;;1.00;;
6259;SDS011;3163;51.516;4.000;2023-08-12T00:23:16;1.45;;;1.35;;
6259;SDS011;3163;51.516;4.000;2023-08-12T00:25:42;1.30;;;1.20;;
6259;SDS011;3163;51.516;4.000;2023-08-12T00:28:07;0.90;;;0.60;;
6259;SDS011;3163;51.516;4.000;2023-08-12T00:30:33;1.40;;;1.10;;
6259;SDS011;3163;51.516;4.000;2023-08-12T00:32:58;1.58;;;1.00;;
6259;SDS011;3163;51.516;4.000;2023-08-12T00:35:24;1.10;;;1.00;;
6259;SDS011;3163;51.516;4.000;2023-08-12T00:37:50;1.13;;;0.77;;
6259;SDS011;3163;51.516;4.000;2023-08-12T00:40:15;0.70;;;0.70;;
6259;SDS011;3163;51.516;4.000;2023-08-12T00:42:41;1.23;;;0.98;;
6259;SDS011;3163;51.516;4.000;2023-08-12T00:45:10;1.23;;;1.13;;
6259;SDS011;3163;51.516;4.000;2023-08-12T00:47:37;0.90;;;0.90;;
6259;SDS011;3163;51.516;4.000;2023-08-12T00:50:08;0.95;;;0.73;;
6259;SDS011;3163;51.516;4.000;2023-08-12T00:52:37;1.05;;;0.95;;
6259;SDS011;3163;51.516;4.000;2023-08-12T00:55:02;0.88;;;0.88;;
6259;SDS011;3163;51.516;4.000;2023-08-12T00:57:28;1.27;;;1.17;;
6259;SDS011;3163;51.516;4.000;2023-08-12T00:59:55;1.02;;;0.90;;
6259;SDS011;3163;51.516;4.000;2023-08-12T01:02:21;1.30;;;0.95;;
6259;SDS011;3163;51.516;4.000;2023-08-12T01:04:46;0.85;;;0.85;;
6259;SDS011;3163;51.516;4.000;2023-08-12T01:07:12;1.35;;;1.25;;
6259;SDS011;3163;51.516;4.000;2023-08-12T01:09:38;0.98;;;0.98;;
6259;SDS011;3163;51.516;4.000;2023-08-12T01:12:05;1.02;;;0.95;;
6259;SDS011;3163;51.516;4.000;2023-08-12T01:14:57;1.25;;;1.13;;
6259;SDS011;3163;51.516;4.000;2023-08-12T01:17:26;1.80;;;1.13;;
6259;SDS011;3163;51.516;4.000;2023-08-12T01:19:54;1.13;;;1.02;;
6259;SDS011;3163;51.516;4.000;2023-08-12T01:22:21;1.13;;;1.10;;
6259;SDS011;3163;51.516;4.000;2023-08-12T01:24:48;1.90;;;1.75;;
6259;SDS011;3163;51.516;4.000;2023-08-12T01:27:16;1.48;;;1.17;;
6259;SDS011;3163;51.516;4.000;2023-08-12T01:29:45;1.40;;;1.30;;
6259;SDS011;3163;51.516;4.000;2023-08-12T01:38:15;2.22;;;1.20;;
6259;SDS011;3163;51.516;4.000;2023-08-12T01:40:42;2.83;;;1.77;;
6259;SDS011;3163;51.516;4.000;2023-08-12T01:43:09;2.05;;;1.02;;
6259;SDS011;3163;51.516;4.000;2023-08-12T01:45:35;1.40;;;1.30;;
6259;SDS011;3163;51.516;4.000;2023-08-12T01:48:01;1.55;;;1.25;;
6259;SDS011;3163;51.516;4.000;2023-08-12T01:50:27;2.17;;;1.58;;
6259;SDS011;3163;51.516;4.000;2023-08-12T01:52:52;2.67;;;1.55;;
6259;SDS011;3163;51.516;4.000;2023-08-12T01:55:18;1.95;;;1.17;;
6259;SDS011;3163;51.516;4.000;2023-08-12T01:57:43;1.52;;;1.08;;
6259;SDS011;3163;51.516;4.000;2023-08-12T02:00:09;1.65;;;1.30;;
6259;SDS011;3163;51.516;4.000;2023-08-12T02:02:35;1.23;;;1.13;;
6259;SDS011;3163;51.516;4.000;2023-08-12T02:05:00;2.75;;;1.52;;
6259;SDS011;3163;51.516;4.000;2023-08-12T02:07:26;1.63;;;1.55;;
6259;SDS011;3163;51.516;4.000;2023-08-12T02:09:51;2.75;;;1.33;;
6259;SDS011;3163;51.516;4.000;2023-08-12T02:12:17;2.90;;;1.63;;
6259;SDS011;3163;51.516;4.000;2023-08-12T02:14:43;1.45;;;1.20;;
6259;SDS011;3163;51.516;4.000;2023-08-12T02:17:08;1.73;;;1.25;;
6259;SDS011;3163;51.516;4.000;2023-08-12T02:19:34;0.80;;;0.80;;
6259;SDS011;3163;51.516;4.000;2023-08-12T02:22:00;2.38;;;1.23;;
6259;SDS011;3163;51.516;4.000;2023-08-12T02:24:26;1.83;;;1.08;;
6259;SDS011;3163;51.516;4.000;2023-08-12T02:26:52;1.58;;;1.30;;
6259;SDS011;3163;51.516;4.000;2023-08-12T02:29:18;2.05;;;1.60;;
6259;SDS011;3163;51.516;4.000;2023-08-12T02:31:44;1.05;;;1.05;;
6259;SDS011;3163;51.516;4.000;2023-08-12T02:34:09;2.22;;;1.60;;
6259;SDS011;3163;51.516;4.000;2023-08-12T02:36:35;2.47;;;1.45;;
6259;SDS011;3163;51.516;4.000;2023-08-12T02:39:01;1.77;;;1.58;;
6259;SDS011;3163;51.516;4.000;2023-08-12T02:41:26;1.80;;;1.70;;
6259;SDS011;3163;51.516;4.000;2023-08-12T02:43:52;2.35;;;1.10;;
6259;SDS011;3163;51.516;4.000;2023-08-12T02:46:18;1.38;;;1.25;;
6259;SDS011;3163;51.516;4.000;2023-08-12T02:48:43;1.60;;;1.10;;
6259;SDS011;3163;51.516;4.000;2023-08-12T02:51:10;2.20;;;1.40;;
6259;SDS011;3163;51.516;4.000;2023-08-12T02:53:35;1.50;;;1.35;;
6259;SDS011;3163;51.516;4.000;2023-08-12T02:56:01;1.92;;;1.23;;
6259;SDS011;3163;51.516;4.000;2023-08-12T02:58:27;1.75;;;1.42;;
6259;SDS011;3163;51.516;4.000;2023-08-12T03:00:54;3.45;;;1.80;;
6259;SDS011;3163;51.516;4.000;2023-08-12T03:03:20;2.28;;;1.40;;
6259;SDS011;3163;51.516;4.000;2023-08-12T03:05:46;1.48;;;1.38;;
6259;SDS011;3163;51.516;4.000;2023-08-12T03:08:12;1.58;;;1.42;;
6259;SDS011;3163;51.516;4.000;2023-08-12T03:10:38;1.75;;;1.42;;
6259;SDS011;3163;51.516;4.000;2023-08-12T03:13:03;1.27;;;1.27;;
6259;SDS011;3163;51.516;4.000;2023-08-12T03:15:29;4.55;;;2.25;;
6259;SDS011;3163;51.516;4.000;2023-08-12T03:17:55;1.58;;;1.35;;
6259;SDS011;3163;51.516;4.000;2023-08-12T03:20:22;1.50;;;1.35;;
6259;SDS011;3163;51.516;4.000;2023-08-12T03:22:47;4.13;;;1.90;;
6259;SDS011;3163;51.516;4.000;2023-08-12T03:25:13;1.73;;;1.52;;
6259;SDS011;3163;51.516;4.000;2023-08-12T03:27:40;2.67;;;1.50;;
6259;SDS011;3163;51.516;4.000;2023-08-12T03:30:06;1.95;;;1.58;;
6259;SDS011;3163;51.516;4.000;2023-08-12T03:32:32;1.42;;;1.30;;
6259;SDS011;3163;51.516;4.000;2023-08-12T03:34:58;1.50;;;1.40;;
6259;SDS011;3163;51.516;4.000;2023-08-12T03:37:25;2.65;;;1.80;;
6259;SDS011;3163;51.516;4.000;2023-08-12T03:39:51;2.63;;;1.50;;
6259;SDS011;3163;51.516;4.000;2023-08-12T03:42:16;2.35;;;1.83;;
6259;SDS011;3163;51.516;4.000;2023-08-12T03:44:43;2.13;;;1.80;;
6259;SDS011;3163;51.516;4.000;2023-08-12T03:47:09;1.38;;;1.33;;
6259;SDS011;3163;51.516;4.000;2023-08-12T03:49:35;3.40;;;1.35;;
6259;SDS011;3163;51.516;4.000;2023-08-12T03:52:01;3.65;;;1.40;;
6259;SDS011;3163;51.516;4.000;2023-08-12T03:54:27;3.13;;;1.55;;
6259;SDS011;3163;51.516;4.000;2023-08-12T03:56:53;1.88;;;1.20;;
6259;SDS011;3163;51.516;4.000;2023-08-12T03:59:18;1.73;;;1.60;;
6259;SDS011;3163;51.516;4.000;2023-08-12T04:01:44;2.95;;;1.60;;
6259;SDS011;3163;51.516;4.000;2023-08-12T04:04:10;1.40;;;1.25;;
6259;SDS011;3163;51.516;4.000;2023-08-12T04:06:36;2.08;;;1.60;;
6259;SDS011;3163;51.516;4.000;2023-08-12T04:09:02;3.72;;;1.60;;
6259;SDS011;3163;51.516;4.000;2023-08-12T04:11:29;1.63;;;1.17;;
6259;SDS011;3163;51.516;4.000;2023-08-12T04:13:54;1.55;;;1.45;;
6259;SDS011;3163;51.516;4.000;2023-08-12T04:16:20;2.67;;;1.70;;
6259;SDS011;3163;51.516;4.000;2023-08-12T04:18:46;1.65;;;1.55;;
6259;SDS011;3163;51.516;4.000;2023-08-12T04:21:13;3.05;;;1.45;;
6259;SDS011;3163;51.516;4.000;2023-08-12T04:23:38;2.08;;;1.58;;
6259;SDS011;3163;51.516;4.000;2023-08-12T04:26:04;2.00;;;1.60;;
6259;SDS011;3163;51.516;4.000;2023-08-12T04:28:30;2.25;;;1.33;;
6259;SDS011;3163;51.516;4.000;2023-08-12T04:30:55;1.55;;;1.45;;
6259;SDS011;3163;51.516;4.000;2023-08-12T04:33:21;1.50;;;1.40;;
6259;SDS011;3163;51.516;4.000;2023-08-12T04:35:47;1.60;;;1.40;;
6259;SDS011;3163;51.516;4.000;2023-08-12T04:38:13;1.45;;;1.33;;
6259;SDS011;3163;51.516;4.000;2023-08-12T04:40:40;2.17;;;1.40;;
6259;SDS011;3163;51.516;4.000;2023-08-12T04:43:09;2.38;;;1.95;;
6259;SDS011;3163;51.516;4.000;2023-08-12T04:45:36;3.90;;;1.58;;
6259;SDS011;3163;51.516;4.000;2023-08-12T04:48:03;1.65;;;1.42;;
6259;SDS011;3163;51.516;4.000;2023-08-12T04:50:29;1.70;;;1.60;;
6259;SDS011;3163;51.516;4.000;2023-08-12T04:52:56;1.38;;;1.25;;
6259;SDS011;3163;51.516;4.000;2023-08-12T04:55:22;1.88;;;1.73;;
6259;SDS011;3163;51.516;4.000;2023-08-12T04:57:49;2.90;;;1.48;;
6259;SDS011;3163;51.516;4.000;2023-08-12T05:00:15;1.10;;;1.00;;
6259;SDS011;3163;51.516;4.000;2023-08-12T05:02:42;1.33;;;1.23;;
6259;SDS011;3163;51.516;4.000;2023-08-12T05:05:07;1.90;;;1.50;;
6259;SDS011;3163;51.516;4.000;2023-08-12T05:07:33;1.67;;;1.30;;
6259;SDS011;3163;51.516;4.000;2023-08-12T05:09:59;2.30;;;1.50;;
6259;SDS011;3163;51.516;4.000;2023-08-12T05:12:24;1.40;;;1.30;;
6259;SDS011;3163;51.516;4.000;2023-08-12T05:14:50;1.58;;;1.50;;
6259;SDS011;3163;51.516;4.000;2023-08-12T05:17:16;1.88;;;1.30;;
6259;SDS011;3163;51.516;4.000;2023-08-12T05:19:41;1.40;;;1.30;;
6259;SDS011;3163;51.516;4.000;2023-08-12T05:22:07;1.40;;;1.30;;
6259;SDS011;3163;51.516;4.000;2023-08-12T05:24:33;1.85;;;1.55;;
6259;SDS011;3163;51.516;4.000;2023-08-12T05:26:58;1.50;;;1.23;;
6259;SDS011;3163;51.516;4.000;2023-08-12T05:29:24;1.50;;;1.40;;
6259;SDS011;3163;51.516;4.000;2023-08-12T05:31:50;1.20;;;1.20;;
6259;SDS011;3163;51.516;4.000;2023-08-12T05:34:15;1.87;;;1.20;;
6259;SDS011;3163;51.516;4.000;2023-08-12T05:36:41;1.40;;;1.25;;
6259;SDS011;3163;51.516;4.000;2023-08-12T05:39:06;1.05;;;0.93;;
6259;SDS011;3163;51.516;4.000;2023-08-12T05:41:32;1.70;;;1.10;;
6259;SDS011;3163;51.516;4.000;2023-08-12T05:43:58;1.77;;;1.20;;
6259;SDS011;3163;51.516;4.000;2023-08-12T05:46:23;1.98;;;1.30;;
6259;SDS011;3163;51.516;4.000;2023-08-12T05:48:49;1.15;;;1.13;;
6259;SDS011;3163;51.516;4.000;2023-08-12T05:51:14;1.13;;;0.98;;
6259;SDS011;3163;51.516;4.000;2023-08-12T05:53:40;1.23;;;1.20;;
6259;SDS011;3163;51.516;4.000;2023-08-12T05:56:05;1.30;;;1.20;;
6259;SDS011;3163;51.516;4.000;2023-08-12T05:58:31;2.13;;;1.02;;
6259;SDS011;3163;51.516;4.000;2023-08-12T06:00:57;0.90;;;0.90;;
6259;SDS011;3163;51.516;4.000;2023-08-12T06:03:22;1.08;;;1.08;;
6259;SDS011;3163;51.516;4.000;2023-08-12T06:05:48;0.93;;;0.93;;
6259;SDS011;3163;51.516;4.000;2023-08-12T06:08:14;1.15;;;1.00;;
6259;SDS011;3163;51.516;4.000;2023-08-12T06:10:39;1.23;;;1.08;;
6259;SDS011;3163;51.516;4.000;2023-08-12T06:13:05;1.33;;;1.23;;
6259;SDS011;3163;51.516;4.000;2023-08-12T06:15:31;1.30;;;1.30;;
6259;SDS011;3163;51.516;4.000;2023-08-12T06:17:58;0.90;;;0.90;;
6259;SDS011;3163;51.516;4.000;2023-08-12T06:20:27;0.80;;;0.80;;
6259;SDS011;3163;51.516;4.000;2023-08-12T06:22:52;1.05;;;1.05;;
6259;SDS011;3163;51.516;4.000;2023-08-12T06:25:18;1.30;;;1.00;;
6259;SDS011;3163;51.516;4.000;2023-08-12T06:27:45;1.00;;;1.00;;
6259;SDS011;3163;51.516;4.000;2023-08-12T06:30:12;2.13;;;1.10;;
6259;SDS011;3163;51.516;4.000;2023-08-12T06:32:38;1.02;;;1.02;;
6259;SDS011;3163;51.516;4.000;2023-08-12T06:35:04;0.95;;;0.85;;
6259;SDS011;3163;51.516;4.000;2023-08-12T06:37:30;1.13;;;0.80;;
6259;SDS011;3163;51.516;4.000;2023-08-12T06:39:56;0.60;;;0.60;;
6259;SDS011;3163;51.516;4.000;2023-08-12T06:42:22;1.00;;;1.00;;
6259;SDS011;3163;51.516;4.000;2023-08-12T06:44:53;0.85;;;0.85;;
6259;SDS011;3163;51.516;4.000;2023-08-12T06:47:22;1.60;;;0.82;;
6259;SDS011;3163;51.516;4.000;2023-08-12T06:49:48;2.58;;;0.70;;
6259;SDS011;3163;51.516;4.000;2023-08-12T06:52:14;0.80;;;0.80;;
6259;SDS011;3163;51.516;4.000;2023-08-12T06:54:41;0.98;;;0.77;;
6259;SDS011;3163;51.516;4.000;2023-08-12T06:57:07;0.63;;;0.63;;
6259;SDS011;3163;51.516;4.000;2023-08-12T06:59:32;0.93;;;0.90;;
6259;SDS011;3163;51.516;4.000;2023-08-12T07:01:58;1.25;;;0.60;;
6259;SDS011;3163;51.516;4.000;2023-08-12T07:04:24;0.80;;;0.80;;
6259;SDS011;3163;51.516;4.000;2023-08-12T07:06:50;1.38;;;0.88;;
6259;SDS011;3163;51.516;4.000;2023-08-12T07:09:15;1.23;;;0.70;;
6259;SDS011;3163;51.516;4.000;2023-08-12T07:11:44;0.77;;;0.75;;
6259;SDS011;3163;51.516;4.000;2023-08-12T07:14:13;0.57;;;0.57;;
6259;SDS011;3163;51.516;4.000;2023-08-12T07:16:38;1.15;;;1.02;;
6259;SDS011;3163;51.516;4.000;2023-08-12T07:19:04;0.88;;;0.68;;
6259;SDS011;3163;51.516;4.000;2023-08-12T07:21:30;0.80;;;0.70;;
6259;SDS011;3163;51.516;4.000;2023-08-12T07:23:55;1.75;;;0.60;;
6259;SDS011;3163;51.516;4.000;2023-08-12T07:26:21;0.75;;;0.75;;
6259;SDS011;3163;51.516;4.000;2023-08-12T07:28:47;0.77;;;0.77;;
6259;SDS011;3163;51.516;4.000;2023-08-12T07:31:13;1.15;;;0.82;;
6259;SDS011;3163;51.516;4.000;2023-08-12T07:33:38;0.82;;;0.60;;
6259;SDS011;3163;51.516;4.000;2023-08-12T07:36:04;0.95;;;0.70;;
6259;SDS011;3163;51.516;4.000;2023-08-12T07:38:30;1.10;;;0.60;;
6259;SDS011;3163;51.516;4.000;2023-08-12T07:40:56;0.95;;;0.80;;
6259;SDS011;3163;51.516;4.000;2023-08-12T07:43:22;1.20;;;0.73;;
6259;SDS011;3163;51.516;4.000;2023-08-12T07:45:51;0.55;;;0.43;;
6259;SDS011;3163;51.516;4.000;2023-08-12T07:48:18;0.90;;;0.65;;
6259;SDS011;3163;51.516;4.000;2023-08-12T07:50:44;0.77;;;0.60;;
6259;SDS011;3163;51.516;4.000;2023-08-12T07:53:10;0.85;;;0.70;;
6259;SDS011;3163;51.516;4.000;2023-08-12T07:55:35;0.95;;;0.70;;
6259;SDS011;3163;51.516;4.000;2023-08-12T07:58:01;0.77;;;0.60;;
6259;SDS011;3163;51.516;4.000;2023-08-12T08:00:27;1.25;;;0.70;;
6259;SDS011;3163;51.516;4.000;2023-08-12T08:02:53;1.35;;;0.70;;
6259;SDS011;3163;51.516;4.000;2023-08-12T08:05:18;1.38;;;0.70;;
6259;SDS011;3163;51.516;4.000;2023-08-12T08:07:44;0.55;;;0.55;;
6259;SDS011;3163;51.516;4.000;2023-08-12T08:10:10;1.50;;;0.80;;
6259;SDS011;3163;51.516;4.000;2023-08-12T08:12:35;0.77;;;0.77;;
6259;SDS011;3163;51.516;4.000;2023-08-12T08:15:01;1.58;;;0.57;;
6259;SDS011;3163;51.516;4.000;2023-08-12T08:17:28;0.93;;;0.50;;
6259;SDS011;3163;51.516;4.000;2023-08-12T08:19:54;0.68;;;0.68;;
6259;SDS011;3163;51.516;4.000;2023-08-12T08:22:20;0.50;;;0.50;;
6259;SDS011;3163;51.516;4.000;2023-08-12T08:24:46;1.08;;;0.50;;
6259;SDS011;3163;51.516;4.000;2023-08-12T08:27:11;1.25;;;0.60;;
6259;SDS011;3163;51.516;4.000;2023-08-12T08:29:38;0.90;;;0.73;;
6259;SDS011;3163;51.516;4.000;2023-08-12T08:32:04;0.98;;;0.50;;
6259;SDS011;3163;51.516;4.000;2023-08-12T08:34:29;0.50;;;0.50;;
6259;SDS011;3163;51.516;4.000;2023-08-12T08:36:55;1.27;;;0.73;;
6259;SDS011;3163;51.516;4.000;2023-08-12T08:39:21;0.98;;;0.88;;
6259;SDS011;3163;51.516;4.000;2023-08-12T08:41:47;1.70;;;0.68;;
6259;SDS011;3163;51.516;4.000;2023-08-12T08:44:13;0.70;;;0.70;;
6259;SDS011;3163;51.516;4.000;2023-08-12T08:46:40;1.38;;;0.80;;
6259;SDS011;3163;51.516;4.000;2023-08-12T08:49:08;2.72;;;0.88;;
6259;SDS011;3163;51.516;4.000;2023-08-12T08:51:36;0.40;;;0.40;;
6259;SDS011;3163;51.516;4.000;2023-08-12T08:54:02;1.10;;;0.60;;
6259;SDS011;3163;51.516;4.000;2023-08-12T08:56:29;1.70;;;0.65;;
6259;SDS011;3163;51.516;4.000;2023-08-12T08:58:57;1.17;;;0.75;;
6259;SDS011;3163;51.516;4.000;2023-08-12T09:01:23;1.00;;;0.68;;
6259;SDS011;3163;51.516;4.000;2023-08-12T09:03:52;0.70;;;0.70;;
6259;SDS011;3163;51.516;4.000;2023-08-12T09:06:20;0.95;;;0.60;;
6259;SDS011;3163;51.516;4.000;2023-08-12T09:08:48;1.17;;;0.70;;
6259;SDS011;3163;51.516;4.000;2023-08-12T09:11:16;0.80;;;0.63;;
6259;SDS011;3163;51.516;4.000;2023-08-12T09:13:42;2.47;;;0.80;;
6259;SDS011;3163;51.516;4.000;2023-08-12T09:16:08;1.88;;;0.77;;
6259;SDS011;3163;51.516;4.000;2023-08-12T09:18:34;0.70;;;0.57;;
6259;SDS011;3163;51.516;4.000;2023-08-12T09:21:01;2.10;;;1.05;;
6259;SDS011;3163;51.516;4.000;2023-08-12T09:23:27;2.53;;;0.93;;
6259;SDS011;3163;51.516;4.000;2023-08-12T09:25:53;1.98;;;1.00;;
6259;SDS011;3163;51.516;4.000;2023-08-12T09:28:19;2.63;;;0.90;;
6259;SDS011;3163;51.516;4.000;2023-08-12T09:30:54;2.03;;;0.82;;
6259;SDS011;3163;51.516;4.000;2023-08-12T09:33:25;1.17;;;0.55;;
6259;SDS011;3163;51.516;4.000;2023-08-12T09:35:51;0.98;;;0.80;;
6259;SDS011;3163;51.516;4.000;2023-08-12T09:38:18;3.13;;;0.93;;
6259;SDS011;3163;51.516;4.000;2023-08-12T09:40:46;2.42;;;0.77;;
6259;SDS011;3163;51.516;4.000;2023-08-12T09:43:12;2.22;;;0.90;;
6259;SDS011;3163;51.516;4.000;2023-08-12T09:45:38;1.35;;;0.90;;
6259;SDS011;3163;51.516;4.000;2023-08-12T09:48:04;3.33;;;1.02;;
6259;SDS011;3163;51.516;4.000;2023-08-12T09:50:30;1.30;;;0.80;;
6259;SDS011;3163;51.516;4.000;2023-08-12T09:52:56;2.00;;;0.98;;
6259;SDS011;3163;51.516;4.000;2023-08-12T09:55:22;4.57;;;0.85;;
6259;SDS011;3163;51.516;4.000;2023-08-12T09:57:53;1.10;;;0.80;;
6259;SDS011;3163;51.516;4.000;2023-08-12T10:00:21;2.97;;;1.20;;
6259;SDS011;3163;51.516;4.000;2023-08-12T10:02:48;1.00;;;0.90;;
6259;SDS011;3163;51.516;4.000;2023-08-12T10:05:27;1.58;;;0.73;;
6259;SDS011;3163;51.516;4.000;2023-08-12T10:07:54;1.80;;;0.82;;
6259;SDS011;3163;51.516;4.000;2023-08-12T10:10:20;2.30;;;1.05;;
6259;SDS011;3163;51.516;4.000;2023-08-12T10:12:50;1.98;;;0.68;;
6259;SDS011;3163;51.516;4.000;2023-08-12T10:15:16;3.10;;;0.88;;
6259;SDS011;3163;51.516;4.000;2023-08-12T10:17:42;2.25;;;0.80;;
6259;SDS011;3163;51.516;4.000;2023-08-12T10:20:11;2.28;;;0.93;;
6259;SDS011;3163;51.516;4.000;2023-08-12T10:22:39;2.15;;;1.00;;
6259;SDS011;3163;51.516;4.000;2023-08-12T10:25:06;1.02;;;0.70;;
6259;SDS011;3163;51.516;4.000;2023-08-12T10:27:34;0.85;;;0.65;;
6259;SDS011;3163;51.516;4.000;2023-08-12T10:30:02;3.10;;;1.05;;
6259;SDS011;3163;51.516;4.000;2023-08-12T10:32:32;3.65;;;1.15;;
6259;SDS011;3163;51.516;4.000;2023-08-12T10:34:59;1.08;;;0.70;;
6259;SDS011;3163;51.516;4.000;2023-08-12T10:37:25;1.80;;;0.85;;
6259;SDS011;3163;51.516;4.000;2023-08-12T10:39:52;1.95;;;0.82;;
6259;SDS011;3163;51.516;4.000;2023-08-12T10:45:07;0.98;;;0.88;;
6259;SDS011;3163;51.516;4.000;2023-08-12T10:47:37;1.52;;;0.88;;
6259;SDS011;3163;51.516;4.000;2023-08-12T10:50:26;1.73;;;1.10;;
6259;SDS011;3163;51.516;4.000;2023-08-12T10:52:52;3.17;;;1.10;;
6259;SDS011;3163;51.516;4.000;2023-08-12T10:55:19;2.75;;;0.80;;
6259;SDS011;3163;51.516;4.000;2023-08-12T10:57:47;2.53;;;0.80;;
6259;SDS011;3163;51.516;4.000;2023-08-12T11:00:14;2.13;;;1.05;;
6259;SDS011;3163;51.516;4.000;2023-08-12T11:02:50;2.28;;;0.73;;
6259;SDS011;3163;51.516;4.000;2023-08-12T11:05:17;3.13;;;0.73;;
6259;SDS011;3163;51.516;4.000;2023-08-12T11:07:44;1.50;;;0.75;;
6259;SDS011;3163;51.516;4.000;2023-08-12T11:12:48;5.25;;;1.08;;
6259;SDS011;3163;51.516;4.000;2023-08-12T11:15:29;2.15;;;1.10;;
6259;SDS011;3163;51.516;4.000;2023-08-12T11:18:07;3.58;;;1.20;;
6259;SDS011;3163;51.516;4.000;2023-08-12T11:20:38;2.88;;;0.90;;
6259;SDS011;3163;51.516;4.000;2023-08-12T11:23:04;4.50;;;1.33;;
6259;SDS011;3163;51.516;4.000;2023-08-12T11:25:32;2.65;;;1.00;;
6259;SDS011;3163;51.516;4.000;2023-08-12T11:27:58;3.75;;;1.10;;
6259;SDS011;3163;51.516;4.000;2023-08-12T11:30:25;3.35;;;1.58;;
6259;SDS011;3163;51.516;4.000;2023-08-12T11:32:52;1.45;;;0.90;;
6259;SDS011;3163;51.516;4.000;2023-08-12T11:35:18;4.65;;;1.17;;
6259;SDS011;3163;51.516;4.000;2023-08-12T11:37:46;1.42;;;0.73;;
6259;SDS011;3163;51.516;4.000;2023-08-12T11:40:13;1.25;;;0.90;;
6259;SDS011;3163;51.516;4.000;2023-08-12T11:42:42;3.33;;;1.40;;
6259;SDS011;3163;51.516;4.000;2023-08-12T11:45:09;3.00;;;1.65;;
6259;SDS011;3163;51.516;4.000;2023-08-12T11:47:36;5.20;;;1.85;;
6259;SDS011;3163;51.516;4.000;2023-08-12T11:50:06;5.32;;;1.80;;
6259;SDS011;3163;51.516;4.000;2023-08-12T11:52:33;3.47;;;1.60;;
6259;SDS011;3163;51.516;4.000;2023-08-12T11:55:00;5.15;;;1.90;;
6259;SDS011;3163;51.516;4.000;2023-08-12T11:57:26;4.20;;;1.48;;
6259;SDS011;3163;51.516;4.000;2023-08-12T12:00:14;7.57;;;1.70;;
6259;SDS011;3163;51.516;4.000;2023-08-12T12:02:40;5.60;;;2.00;;
6259;SDS011;3163;51.516;4.000;2023-08-12T12:05:10;2.92;;;1.55;;
6259;SDS011;3163;51.516;4.000;2023-08-12T12:07:37;3.00;;;1.60;;
6259;SDS011;3163;51.516;4.000;2023-08-12T12:10:03;5.60;;;1.60;;
6259;SDS011;3163;51.516;4.000;2023-08-12T12:12:30;4.40;;;1.40;;
6259;SDS011;3163;51.516;4.000;2023-08-12T12:15:01;7.78;;;1.83;;
6259;SDS011;3163;51.516;4.000;2023-08-12T12:17:28;6.82;;;1.73;;
6259;SDS011;3163;51.516;4.000;2023-08-12T12:19:57;5.38;;;1.85;;
6259;SDS011;3163;51.516;4.000;2023-08-12T12:22:30;4.88;;;1.80;;
6259;SDS011;3163;51.516;4.000;2023-08-12T12:24:58;6.10;;;1.60;;
6259;SDS011;3163;51.516;4.000;2023-08-12T12:27:25;8.90;;;1.85;;
6259;SDS011;3163;51.516;4.000;2023-08-12T12:29:51;5.28;;;1.67;;
6259;SDS011;3163;51.516;4.000;2023-08-12T12:32:18;4.45;;;1.98;;
6259;SDS011;3163;51.516;4.000;2023-08-12T12:34:45;4.03;;;1.27;;
6259;SDS011;3163;51.516;4.000;2023-08-12T12:37:11;5.93;;;2.10;;
6259;SDS011;3163;51.516;4.000;2023-08-12T12:39:38;4.97;;;1.52;;
6259;SDS011;3163;51.516;4.000;2023-08-12T12:42:04;7.60;;;1.55;;
6259;SDS011;3163;51.516;4.000;2023-08-12T12:44:30;7.90;;;2.15;;
6259;SDS011;3163;51.516;4.000;2023-08-12T12:46:56;11.00;;;2.27;;
6259;SDS011;3163;51.516;4.000;2023-08-12T12:49:21;4.15;;;1.70;;
6259;SDS011;3163;51.516;4.000;2023-08-12T12:51:47;2.80;;;1.45;;
6259;SDS011;3163;51.516;4.000;2023-08-12T12:54:13;5.25;;;1.45;;
6259;SDS011;3163;51.516;4.000;2023-08-12T12:56:38;3.90;;;1.65;;
6259;SDS011;3163;51.516;4.000;2023-08-12T12:59:04;5.57;;;1.67;;
6259;SDS011;3163;51.516;4.000;2023-08-12T13:01:30;3.47;;;1.25;;
6259;SDS011;3163;51.516;4.000;2023-08-12T13:03:56;3.40;;;1.52;;
6259;SDS011;3163;51.516;4.000;2023-08-12T13:06:21;7.72;;;1.98;;
6259;SDS011;3163;51.516;4.000;2023-08-12T13:08:47;4.22;;;1.80;;
6259;SDS011;3163;51.516;4.000;2023-08-12T13:11:12;4.00;;;1.60;;
6259;SDS011;3163;51.516;4.000;2023-08-12T13:13:38;8.85;;;2.10;;
6259;SDS011;3163;51.516;4.000;2023-08-12T13:16:03;8.07;;;2.37;;
6259;SDS011;3163;51.516;4.000;2023-08-12T13:18:29;5.78;;;1.90;;
6259;SDS011;3163;51.516;4.000;2023-08-12T13:20:55;3.47;;;1.60;;
6259;SDS011;3163;51.516;4.000;2023-08-12T13:23:20;6.93;;;2.00;;
6259;SDS011;3163;51.516;4.000;2023-08-12T13:25:46;8.70;;;2.28;;
6259;SDS011;3163;51.516;4.000;2023-08-12T13:28:12;3.97;;;1.42;;
6259;SDS011;3163;51.516;4.000;2023-08-12T13:30:37;9.43;;;1.85;;
6259;SDS011;3163;51.516;4.000;2023-08-12T13:33:03;5.70;;;2.00;;
6259;SDS011;3163;51.516;4.000;2023-08-12T13:35:30;5.07;;;1.33;;
6259;SDS011;3163;51.516;4.000;2023-08-12T13:37:56;4.68;;;1.73;;
6259;SDS011;3163;51.516;4.000;2023-08-12T13:40:21;3.72;;;1.85;;
6259;SDS011;3163;51.516;4.000;2023-08-12T13:42:47;3.05;;;1.70;;
6259;SDS011;3163;51.516;4.000;2023-08-12T13:45:13;2.38;;;1.20;;
6259;SDS011;3163;51.516;4.000;2023-08-12T13:47:38;2.97;;;1.33;;
6259;SDS011;3163;51.516;4.000;2023-08-12T13:50:04;6.35;;;1.88;;
6259;SDS011;3163;51.516;4.000;2023-08-12T13:52:30;5.03;;;1.48;;
6259;SDS011;3163;51.516;4.000;2023-08-12T13:54:56;3.73;;;1.60;;
6259;SDS011;3163;51.516;4.000;2023-08-12T13:57:21;4.15;;;1.67;;
6259;SDS011;3163;51.516;4.000;2023-08-12T13:59:47;6.13;;;1.05;;
6259;SDS011;3163;51.516;4.000;2023-08-12T14:02:13;5.05;;;2.00;;
6259;SDS011;3163;51.516;4.000;2023-08-12T14:04:40;5.30;;;1.70;;
6259;SDS011;3163;51.516;4.000;2023-08-12T14:07:05;3.40;;;1.20;;
6259;SDS011;3163;51.516;4.000;2023-08-12T14:09:31;2.63;;;1.13;;
6259;SDS011;3163;51.516;4.000;2023-08-12T14:11:57;3.25;;;1.60;;
6259;SDS011;3163;51.516;4.000;2023-08-12T14:14:22;3.45;;;1.33;;
6259;SDS011;3163;51.516;4.000;2023-08-12T14:16:52;2.97;;;1.40;;
6259;SDS011;3163;51.516;4.000;2023-08-12T14:19:18;2.53;;;1.23;;
6259;SDS011;3163;51.516;4.000;2023-08-12T14:21:44;7.80;;;1.85;;
6259;SDS011;3163;51.516;4.000;2023-08-12T14:24:09;4.80;;;1.50;;
6259;SDS011;3163;51.516;4.000;2023-08-12T14:26:35;6.00;;;1.88;;
6259;SDS011;3163;51.516;4.000;2023-08-12T14:29:02;4.30;;;1.40;;
6259;SDS011;3163;51.516;4.000;2023-08-12T14:31:28;4.70;;;1.95;;
6259;SDS011;3163;51.516;4.000;2023-08-12T14:33:54;6.13;;;1.45;;
6259;SDS011;3163;51.516;4.000;2023-08-12T14:36:20;5.85;;;1.70;;
6259;SDS011;3163;51.516;4.000;2023-08-12T14:38:45;5.32;;;1.58;;
6259;SDS011;3163;51.516;4.000;2023-08-12T14:41:11;4.25;;;1.30;;
6259;SDS011;3163;51.516;4.000;2023-08-12T14:43:36;5.07;;;1.65;;
6259;SDS011;3163;51.516;4.000;2023-08-12T14:46:02;3.08;;;1.42;;
6259;SDS011;3163;51.516;4.000;2023-08-12T14:48:31;2.55;;;1.50;;
6259;SDS011;3163;51.516;4.000;2023-08-12T14:50:56;4.57;;;1.60;;
6259;SDS011;3163;51.516;4.000;2023-08-12T14:53:24;5.75;;;1.50;;
6259;SDS011;3163;51.516;4.000;2023-08-12T14:55:50;2.17;;;1.10;;
6259;SDS011;3163;51.516;4.000;2023-08-12T14:58:16;2.70;;;1.63;;
6259;SDS011;3163;51.516;4.000;2023-08-12T15:00:41;4.32;;;1.52;;
6259;SDS011;3163;51.516;4.000;2023-08-12T15:03:07;6.75;;;1.55;;
6259;SDS011;3163;51.516;4.000;2023-08-12T15:05:33;5.60;;;2.05;;
6259;SDS011;3163;51.516;4.000;2023-08-12T15:07:58;3.70;;;1.85;;
6259;SDS011;3163;51.516;4.000;2023-08-12T15:10:24;3.28;;;1.40;;
6259;SDS011;3163;51.516;4.000;2023-08-12T15:12:49;5.80;;;1.90;;
6259;SDS011;3163;51.516;4.000;2023-08-12T15:15:15;2.78;;;1.30;;
6259;SDS011;3163;51.516;4.000;2023-08-12T15:17:41;3.00;;;1.30;;
6259;SDS011;3163;51.516;4.000;2023-08-12T15:20:07;3.90;;;1.23;;
6259;SDS011;3163;51.516;4.000;2023-08-12T15:22:35;5.93;;;1.60;;